sensor_id;sensor_type;location;lat;lon;timestamp;temperature;humidity
563;DHT22;266;49.514;8.294;2022-08-06T00:02:09;18.30;99.90
563;DHT22;266;49.514;8.294;2022-08-06T00:04:39;18.30;99.90
563;DHT22;266;49.514;8.294;2022-08-06T00:07:08;18.30;99.90
563;DHT22;266;49.514;8.294;2022-08-06T00:09:44;18.20;99.90
563;DHT22;266;49.514;8.294;2022-08-06T00:12:26;18.10;99.90
563;DHT22;266;49.514;8.294;2022-08-06T00:14:55;18.10;99.90
563;DHT22;266;49.514;8.294;2022-08-06T00:17:24;18.00;99.90
563;DHT22;266;49.514;8.294;2022-08-06T00:19:59;17.90;99.90
563;DHT22;266;49.514;8.294;2022-08-06T00:22:29;17.80;99.90
563;DHT22;266;49.514;8.294;2022-08-06T00:24:58;17.80;99.90
563;DHT22;266;49.514;8.294;2022-08-06T00:27:26;17.80;99.90
563;DHT22;266;49.514;8.294;2022-08-06T00:30:07;17.70;99.90
563;DHT22;266;49.514;8.294;2022-08-06T00:32:47;17.70;99.90
563;DHT22;266;49.514;8.294;2022-08-06T00:35:20;17.70;99.90
563;DHT22;266;49.514;8.294;2022-08-06T00:37:49;17.80;99.90
563;DHT22;266;49.514;8.294;2022-08-06T00:40:24;17.80;99.90
563;DHT22;266;49.514;8.294;2022-08-06T00:42:55;17.80;99.90
563;DHT22;266;49.514;8.294;2022-08-06T00:45:23;17.80;99.90
563;DHT22;266;49.514;8.294;2022-08-06T00:47:51;17.70;99.90
563;DHT22;266;49.514;8.294;2022-08-06T00:50:31;17.70;99.90
563;DHT22;266;49.514;8.294;2022-08-06T00:53:01;17.70;99.90
563;DHT22;266;49.514;8.294;2022-08-06T00:55:29;17.70;99.90
563;DHT22;266;49.514;8.294;2022-08-06T00:58:04;17.60;99.90
563;DHT22;266;49.514;8.294;2022-08-06T01:00:32;17.60;99.90
563;DHT22;266;49.514;8.294;2022-08-06T01:03:06;17.60;99.90
563;DHT22;266;49.514;8.294;2022-08-06T01:05:56;17.60;99.90
563;DHT22;266;49.514;8.294;2022-08-06T01:08:44;17.50;99.90
563;DHT22;266;49.514;8.294;2022-08-06T01:11:14;17.50;99.90
563;DHT22;266;49.514;8.294;2022-08-06T01:13:42;17.50;99.90
563;DHT22;266;49.514;8.294;2022-08-06T01:16:35;17.50;99.90
563;DHT22;266;49.514;8.294;2022-08-06T01:19:26;17.50;99.90
563;DHT22;266;49.514;8.294;2022-08-06T01:22:32;17.50;99.90
563;DHT22;266;49.514;8.294;2022-08-06T01:25:30;17.40;99.90
563;DHT22;266;49.514;8.294;2022-08-06T01:28:17;17.40;99.90
563;DHT22;266;49.514;8.294;2022-08-06T01:31:01;17.30;99.90
563;DHT22;266;49.514;8.294;2022-08-06T01:33:38;17.30;99.90
563;DHT22;266;49.514;8.294;2022-08-06T01:36:18;17.30;99.90
563;DHT22;266;49.514;8.294;2022-08-06T01:38:57;17.30;99.90
563;DHT22;266;49.514;8.294;2022-08-06T01:41:31;17.20;99.90
563;DHT22;266;49.514;8.294;2022-08-06T01:44:29;17.20;99.90
563;DHT22;266;49.514;8.294;2022-08-06T01:47:02;17.20;99.90
563;DHT22;266;49.514;8.294;2022-08-06T01:49:46;17.10;99.90
563;DHT22;266;49.514;8.294;2022-08-06T01:52:32;17.10;99.90
563;DHT22;266;49.514;8.294;2022-08-06T01:55:07;17.10;99.90
563;DHT22;266;49.514;8.294;2022-08-06T01:57:41;17.10;99.90
563;DHT22;266;49.514;8.294;2022-08-06T02:00:34;17.10;99.90
563;DHT22;266;49.514;8.294;2022-08-06T02:03:08;17.10;99.90
563;DHT22;266;49.514;8.294;2022-08-06T02:05:44;17.00;99.90
563;DHT22;266;49.514;8.294;2022-08-06T02:08:22;17.00;99.90
563;DHT22;266;49.514;8.294;2022-08-06T02:11:08;17.00;99.90
563;DHT22;266;49.514;8.294;2022-08-06T02:13:58;17.00;99.90
563;DHT22;266;49.514;8.294;2022-08-06T02:16:33;16.90;99.90
563;DHT22;266;49.514;8.294;2022-08-06T02:19:09;17.00;99.90
563;DHT22;266;49.514;8.294;2022-08-06T02:21:42;16.90;99.90
563;DHT22;266;49.514;8.294;2022-08-06T02:24:21;16.90;99.90
563;DHT22;266;49.514;8.294;2022-08-06T02:26:52;16.80;99.90
563;DHT22;266;49.514;8.294;2022-08-06T02:29:21;16.80;99.90
563;DHT22;266;49.514;8.294;2022-08-06T02:31:53;16.80;99.90
563;DHT22;266;49.514;8.294;2022-08-06T02:34:27;16.80;99.90
563;DHT22;266;49.514;8.294;2022-08-06T02:37:01;16.80;99.90
563;DHT22;266;49.514;8.294;2022-08-06T02:39:33;16.80;99.90
563;DHT22;266;49.514;8.294;2022-08-06T02:42:20;16.80;99.90
563;DHT22;266;49.514;8.294;2022-08-06T02:44:58;16.70;99.90
563;DHT22;266;49.514;8.294;2022-08-06T02:47:32;16.70;99.90
563;DHT22;266;49.514;8.294;2022-08-06T02:50:26;16.70;99.90
563;DHT22;266;49.514;8.294;2022-08-06T02:53:02;16.60;99.90
563;DHT22;266;49.514;8.294;2022-08-06T02:55:53;16.60;99.90
563;DHT22;266;49.514;8.294;2022-08-06T02:58:26;16.60;99.90
563;DHT22;266;49.514;8.294;2022-08-06T03:01:08;16.50;99.90
563;DHT22;266;49.514;8.294;2022-08-06T03:03:38;16.50;99.90
563;DHT22;266;49.514;8.294;2022-08-06T03:06:26;16.40;99.90
563;DHT22;266;49.514;8.294;2022-08-06T03:08:58;16.40;99.90
563;DHT22;266;49.514;8.294;2022-08-06T03:11:31;16.40;99.90
563;DHT22;266;49.514;8.294;2022-08-06T03:14:01;16.40;99.90
563;DHT22;266;49.514;8.294;2022-08-06T03:16:50;16.40;99.90
563;DHT22;266;49.514;8.294;2022-08-06T03:19:26;16.40;99.90
563;DHT22;266;49.514;8.294;2022-08-06T03:22:16;16.40;99.90
563;DHT22;266;49.514;8.294;2022-08-06T03:25:06;16.30;99.90
563;DHT22;266;49.514;8.294;2022-08-06T03:27:36;16.30;99.90
563;DHT22;266;49.514;8.294;2022-08-06T03:30:11;16.30;99.90
563;DHT22;266;49.514;8.294;2022-08-06T03:32:59;16.20;99.90
563;DHT22;266;49.514;8.294;2022-08-06T03:35:49;16.20;99.90
563;DHT22;266;49.514;8.294;2022-08-06T03:38:20;16.20;99.90
563;DHT22;266;49.514;8.294;2022-08-06T03:40:55;16.10;99.90
563;DHT22;266;49.514;8.294;2022-08-06T03:43:26;16.10;99.90
563;DHT22;266;49.514;8.294;2022-08-06T03:46:18;16.10;99.90
563;DHT22;266;49.514;8.294;2022-08-06T03:48:49;16.00;99.90
563;DHT22;266;49.514;8.294;2022-08-06T03:51:21;16.00;99.90
563;DHT22;266;49.514;8.294;2022-08-06T03:54:11;16.00;99.90
563;DHT22;266;49.514;8.294;2022-08-06T03:56:57;15.90;99.90
563;DHT22;266;49.514;8.294;2022-08-06T03:59:36;15.90;99.90
563;DHT22;266;49.514;8.294;2022-08-06T04:02:27;15.90;99.90
563;DHT22;266;49.514;8.294;2022-08-06T04:05:14;15.80;99.90
563;DHT22;266;49.514;8.294;2022-08-06T04:07:51;15.70;99.90
563;DHT22;266;49.514;8.294;2022-08-06T04:10:25;15.70;99.90
563;DHT22;266;49.514;8.294;2022-08-06T04:13:02;15.60;99.90
563;DHT22;266;49.514;8.294;2022-08-06T04:15:51;15.60;99.90
563;DHT22;266;49.514;8.294;2022-08-06T04:18:24;15.60;99.90
563;DHT22;266;49.514;8.294;2022-08-06T04:20:55;15.50;99.90
563;DHT22;266;49.514;8.294;2022-08-06T04:23:45;15.50;99.90
563;DHT22;266;49.514;8.294;2022-08-06T04:26:15;15.50;99.90
563;DHT22;266;49.514;8.294;2022-08-06T04:28:48;15.50;99.90
563;DHT22;266;49.514;8.294;2022-08-06T04:31:25;15.40;99.90
563;DHT22;266;49.514;8.294;2022-08-06T04:34:18;15.40;99.90
563;DHT22;266;49.514;8.294;2022-08-06T04:36:53;15.40;99.90
563;DHT22;266;49.514;8.294;2022-08-06T04:39:23;15.30;99.90
563;DHT22;266;49.514;8.294;2022-08-06T04:42:11;15.20;99.90
563;DHT22;266;49.514;8.294;2022-08-06T04:44:41;15.20;99.90
563;DHT22;266;49.514;8.294;2022-08-06T04:47:11;15.20;99.90
563;DHT22;266;49.514;8.294;2022-08-06T04:49:45;15.10;99.90
563;DHT22;266;49.514;8.294;2022-08-06T04:52:29;15.00;99.90
563;DHT22;266;49.514;8.294;2022-08-06T04:55:17;14.90;99.90
563;DHT22;266;49.514;8.294;2022-08-06T04:57:53;14.90;99.90
563;DHT22;266;49.514;8.294;2022-08-06T05:00:30;14.90;99.90
563;DHT22;266;49.514;8.294;2022-08-06T05:03:18;14.90;99.90
563;DHT22;266;49.514;8.294;2022-08-06T05:06:10;15.10;99.90
563;DHT22;266;49.514;8.294;2022-08-06T05:08:43;15.10;99.90
563;DHT22;266;49.514;8.294;2022-08-06T05:11:23;15.10;99.90
563;DHT22;266;49.514;8.294;2022-08-06T05:13:56;15.20;99.90
563;DHT22;266;49.514;8.294;2022-08-06T05:16:27;15.30;99.90
563;DHT22;266;49.514;8.294;2022-08-06T05:19:00;15.30;99.90
563;DHT22;266;49.514;8.294;2022-08-06T05:21:49;15.30;99.90
563;DHT22;266;49.514;8.294;2022-08-06T05:24:37;15.40;99.90
563;DHT22;266;49.514;8.294;2022-08-06T05:27:27;15.50;99.90
563;DHT22;266;49.514;8.294;2022-08-06T05:30:15;15.50;99.90
563;DHT22;266;49.514;8.294;2022-08-06T05:32:44;15.60;99.90
563;DHT22;266;49.514;8.294;2022-08-06T05:35:16;15.70;99.90
563;DHT22;266;49.514;8.294;2022-08-06T05:37:45;15.70;99.90
563;DHT22;266;49.514;8.294;2022-08-06T05:40:30;15.80;99.90
563;DHT22;266;49.514;8.294;2022-08-06T05:43:23;15.90;99.90
563;DHT22;266;49.514;8.294;2022-08-06T05:46:13;16.00;99.90
563;DHT22;266;49.514;8.294;2022-08-06T05:48:48;16.10;99.90
563;DHT22;266;49.514;8.294;2022-08-06T05:51:23;16.10;99.90
563;DHT22;266;49.514;8.294;2022-08-06T05:54:21;16.20;99.90
563;DHT22;266;49.514;8.294;2022-08-06T05:56:51;16.30;99.90
563;DHT22;266;49.514;8.294;2022-08-06T05:59:34;16.30;99.90
563;DHT22;266;49.514;8.294;2022-08-06T06:02:23;16.40;99.90
563;DHT22;266;49.514;8.294;2022-08-06T06:04:53;16.50;99.90
563;DHT22;266;49.514;8.294;2022-08-06T06:07:42;16.60;99.90
563;DHT22;266;49.514;8.294;2022-08-06T06:10:33;16.70;99.90
563;DHT22;266;49.514;8.294;2022-08-06T06:13:10;16.70;99.90
563;DHT22;266;49.514;8.294;2022-08-06T06:16:07;16.80;99.90
563;DHT22;266;49.514;8.294;2022-08-06T06:18:48;16.80;99.90
563;DHT22;266;49.514;8.294;2022-08-06T06:21:30;16.90;99.90
563;DHT22;266;49.514;8.294;2022-08-06T06:24:07;16.90;99.90
563;DHT22;266;49.514;8.294;2022-08-06T06:26:45;17.00;99.90
563;DHT22;266;49.514;8.294;2022-08-06T06:29:26;17.10;99.90
563;DHT22;266;49.514;8.294;2022-08-06T06:32:32;17.20;99.90
563;DHT22;266;49.514;8.294;2022-08-06T06:35:15;17.30;99.90
563;DHT22;266;49.514;8.294;2022-08-06T06:37:54;17.30;99.90
563;DHT22;266;49.514;8.294;2022-08-06T06:40:38;17.40;99.90
563;DHT22;266;49.514;8.294;2022-08-06T06:43:33;17.50;99.90
563;DHT22;266;49.514;8.294;2022-08-06T06:46:16;17.60;99.90
563;DHT22;266;49.514;8.294;2022-08-06T06:49:14;17.60;99.90
563;DHT22;266;49.514;8.294;2022-08-06T06:52:08;17.70;99.90
563;DHT22;266;49.514;8.294;2022-08-06T06:54:42;17.80;99.90
563;DHT22;266;49.514;8.294;2022-08-06T06:57:15;17.80;99.90
563;DHT22;266;49.514;8.294;2022-08-06T06:59:51;17.90;99.90
563;DHT22;266;49.514;8.294;2022-08-06T07:02:40;18.00;99.90
563;DHT22;266;49.514;8.294;2022-08-06T07:05:12;18.10;99.90
563;DHT22;266;49.514;8.294;2022-08-06T07:07:44;18.10;99.90
563;DHT22;266;49.514;8.294;2022-08-06T07:10:15;18.20;99.90
563;DHT22;266;49.514;8.294;2022-08-06T07:12:46;18.30;99.90
563;DHT22;266;49.514;8.294;2022-08-06T07:15:19;18.30;99.90
563;DHT22;266;49.514;8.294;2022-08-06T07:17:50;18.40;99.90
563;DHT22;266;49.514;8.294;2022-08-06T07:20:32;18.50;99.90
563;DHT22;266;49.514;8.294;2022-08-06T07:23:06;18.60;99.90
563;DHT22;266;49.514;8.294;2022-08-06T07:25:55;18.70;99.90
563;DHT22;266;49.514;8.294;2022-08-06T07:28:25;18.80;99.90
563;DHT22;266;49.514;8.294;2022-08-06T07:30:56;18.90;99.90
563;DHT22;266;49.514;8.294;2022-08-06T07:33:36;19.00;99.90
563;DHT22;266;49.514;8.294;2022-08-06T07:36:30;19.10;99.90
563;DHT22;266;49.514;8.294;2022-08-06T07:39:10;19.20;99.90
563;DHT22;266;49.514;8.294;2022-08-06T07:41:43;19.30;99.90
563;DHT22;266;49.514;8.294;2022-08-06T07:44:35;19.40;99.90
563;DHT22;266;49.514;8.294;2022-08-06T07:47:25;19.40;99.90
563;DHT22;266;49.514;8.294;2022-08-06T07:50:10;19.50;99.90
563;DHT22;266;49.514;8.294;2022-08-06T07:52:41;19.60;99.90
563;DHT22;266;49.514;8.294;2022-08-06T07:55:12;19.70;99.90
563;DHT22;266;49.514;8.294;2022-08-06T07:57:42;19.80;99.90
563;DHT22;266;49.514;8.294;2022-08-06T08:00:25;19.80;99.90
563;DHT22;266;49.514;8.294;2022-08-06T08:02:55;20.00;99.90
563;DHT22;266;49.514;8.294;2022-08-06T08:06:02;20.10;99.90
563;DHT22;266;49.514;8.294;2022-08-06T08:08:51;20.30;99.90
563;DHT22;266;49.514;8.294;2022-08-06T08:11:23;20.50;99.90
563;DHT22;266;49.514;8.294;2022-08-06T08:14:13;20.60;99.90
563;DHT22;266;49.514;8.294;2022-08-06T08:16:45;20.80;99.90
563;DHT22;266;49.514;8.294;2022-08-06T08:19:22;21.10;99.90
563;DHT22;266;49.514;8.294;2022-08-06T08:21:50;21.50;99.90
563;DHT22;266;49.514;8.294;2022-08-06T08:24:20;21.90;99.90
563;DHT22;266;49.514;8.294;2022-08-06T08:26:48;22.40;99.90
563;DHT22;266;49.514;8.294;2022-08-06T08:29:36;22.80;99.90
563;DHT22;266;49.514;8.294;2022-08-06T08:32:06;23.30;99.90
563;DHT22;266;49.514;8.294;2022-08-06T08:34:42;23.40;99.90
563;DHT22;266;49.514;8.294;2022-08-06T08:37:17;23.80;99.90
563;DHT22;266;49.514;8.294;2022-08-06T08:39:47;24.10;99.90
563;DHT22;266;49.514;8.294;2022-08-06T08:42:26;24.20;99.90
563;DHT22;266;49.514;8.294;2022-08-06T08:44:59;24.70;99.90
563;DHT22;266;49.514;8.294;2022-08-06T08:47:29;25.10;99.90
563;DHT22;266;49.514;8.294;2022-08-06T08:50:19;25.50;99.90
563;DHT22;266;49.514;8.294;2022-08-06T08:52:50;25.80;99.90
563;DHT22;266;49.514;8.294;2022-08-06T08:55:25;25.60;99.90
563;DHT22;266;49.514;8.294;2022-08-06T08:58:14;25.50;99.90
563;DHT22;266;49.514;8.294;2022-08-06T09:01:05;25.80;99.90
563;DHT22;266;49.514;8.294;2022-08-06T09:03:36;25.90;99.90
563;DHT22;266;49.514;8.294;2022-08-06T09:06:13;25.90;99.90
563;DHT22;266;49.514;8.294;2022-08-06T09:08:57;26.10;99.90
563;DHT22;266;49.514;8.294;2022-08-06T09:11:33;26.30;99.90
563;DHT22;266;49.514;8.294;2022-08-06T09:14:21;26.60;99.90
563;DHT22;266;49.514;8.294;2022-08-06T09:17:00;26.80;99.90
563;DHT22;266;49.514;8.294;2022-08-06T09:19:29;26.80;99.90
563;DHT22;266;49.514;8.294;2022-08-06T09:22:05;27.00;99.90
563;DHT22;266;49.514;8.294;2022-08-06T09:24:35;27.10;99.90
563;DHT22;266;49.514;8.294;2022-08-06T09:27:08;27.30;99.90
563;DHT22;266;49.514;8.294;2022-08-06T09:29:58;27.20;99.90
563;DHT22;266;49.514;8.294;2022-08-06T09:32:47;27.20;99.90
563;DHT22;266;49.514;8.294;2022-08-06T09:35:24;27.40;99.90
563;DHT22;266;49.514;8.294;2022-08-06T09:38:12;27.20;99.90
563;DHT22;266;49.514;8.294;2022-08-06T09:41:02;27.10;99.90
563;DHT22;266;49.514;8.294;2022-08-06T09:43:34;27.00;99.90
563;DHT22;266;49.514;8.294;2022-08-06T09:46:36;27.20;99.90
563;DHT22;266;49.514;8.294;2022-08-06T09:49:05;27.70;99.90
563;DHT22;266;49.514;8.294;2022-08-06T09:52:11;27.80;99.90
563;DHT22;266;49.514;8.294;2022-08-06T09:54:40;28.30;99.90
563;DHT22;266;49.514;8.294;2022-08-06T09:57:08;28.30;99.90
563;DHT22;266;49.514;8.294;2022-08-06T09:59:45;28.10;99.90
563;DHT22;266;49.514;8.294;2022-08-06T10:02:17;28.40;99.90
563;DHT22;266;49.514;8.294;2022-08-06T10:05:06;28.70;99.90
563;DHT22;266;49.514;8.294;2022-08-06T10:07:46;28.80;99.90
563;DHT22;266;49.514;8.294;2022-08-06T10:10:32;28.70;99.90
563;DHT22;266;49.514;8.294;2022-08-06T10:13:16;28.50;99.90
563;DHT22;266;49.514;8.294;2022-08-06T10:15:47;28.60;99.90
563;DHT22;266;49.514;8.294;2022-08-06T10:18:32;28.70;99.90
563;DHT22;266;49.514;8.294;2022-08-06T10:21:22;28.50;99.90
563;DHT22;266;49.514;8.294;2022-08-06T10:23:54;28.40;99.90
563;DHT22;266;49.514;8.294;2022-08-06T10:26:25;28.00;99.90
563;DHT22;266;49.514;8.294;2022-08-06T10:29:01;28.10;99.90
563;DHT22;266;49.514;8.294;2022-08-06T10:31:31;28.20;99.90
563;DHT22;266;49.514;8.294;2022-08-06T10:34:02;28.30;99.90
563;DHT22;266;49.514;8.294;2022-08-06T10:36:35;28.50;99.90
563;DHT22;266;49.514;8.294;2022-08-06T10:39:06;28.50;99.90
563;DHT22;266;49.514;8.294;2022-08-06T10:41:55;28.70;99.90
563;DHT22;266;49.514;8.294;2022-08-06T10:44:33;28.80;99.90
563;DHT22;266;49.514;8.294;2022-08-06T10:47:10;29.10;99.90
563;DHT22;266;49.514;8.294;2022-08-06T10:49:59;29.30;99.90
563;DHT22;266;49.514;8.294;2022-08-06T10:52:48;29.10;99.90
563;DHT22;266;49.514;8.294;2022-08-06T10:55:17;29.10;99.90
563;DHT22;266;49.514;8.294;2022-08-06T10:57:46;29.20;99.90
563;DHT22;266;49.514;8.294;2022-08-06T11:00:17;29.20;99.90
563;DHT22;266;49.514;8.294;2022-08-06T11:02:52;29.20;99.90
563;DHT22;266;49.514;8.294;2022-08-06T11:05:27;29.40;99.90
563;DHT22;266;49.514;8.294;2022-08-06T11:08:32;29.60;99.90
563;DHT22;266;49.514;8.294;2022-08-06T11:11:26;29.60;99.90
563;DHT22;266;49.514;8.294;2022-08-06T11:14:07;29.60;99.90
563;DHT22;266;49.514;8.294;2022-08-06T11:16:55;29.60;99.90
563;DHT22;266;49.514;8.294;2022-08-06T11:19:42;29.20;99.90
563;DHT22;266;49.514;8.294;2022-08-06T11:22:34;29.30;99.90
563;DHT22;266;49.514;8.294;2022-08-06T11:25:06;29.10;99.90
563;DHT22;266;49.514;8.294;2022-08-06T11:27:53;29.00;99.90
563;DHT22;266;49.514;8.294;2022-08-06T11:30:40;28.90;99.90
563;DHT22;266;49.514;8.294;2022-08-06T11:33:15;29.10;99.90
563;DHT22;266;49.514;8.294;2022-08-06T11:35:48;29.30;99.90
563;DHT22;266;49.514;8.294;2022-08-06T11:41:44;29.60;99.90
563;DHT22;266;49.514;8.294;2022-08-06T11:44:26;29.70;99.90
563;DHT22;266;49.514;8.294;2022-08-06T11:47:12;29.80;99.90
563;DHT22;266;49.514;8.294;2022-08-06T11:49:49;29.90;99.90
563;DHT22;266;49.514;8.294;2022-08-06T11:52:40;29.80;99.90
563;DHT22;266;49.514;8.294;2022-08-06T11:55:11;29.60;99.90
563;DHT22;266;49.514;8.294;2022-08-06T11:57:49;29.40;99.90
563;DHT22;266;49.514;8.294;2022-08-06T12:00:20;29.40;99.90
563;DHT22;266;49.514;8.294;2022-08-06T12:02:58;29.60;99.90
563;DHT22;266;49.514;8.294;2022-08-06T12:05:48;29.60;99.90
563;DHT22;266;49.514;8.294;2022-08-06T12:08:28;29.60;99.90
563;DHT22;266;49.514;8.294;2022-08-06T12:11:30;29.80;99.90
563;DHT22;266;49.514;8.294;2022-08-06T12:14:04;29.60;99.90
563;DHT22;266;49.514;8.294;2022-08-06T12:16:52;29.60;99.90
563;DHT22;266;49.514;8.294;2022-08-06T12:19:28;29.40;99.90
563;DHT22;266;49.514;8.294;2022-08-06T12:21:58;29.70;99.90
563;DHT22;266;49.514;8.294;2022-08-06T12:24:28;29.70;99.90
563;DHT22;266;49.514;8.294;2022-08-06T12:27:18;29.60;99.90
563;DHT22;266;49.514;8.294;2022-08-06T12:29:54;30.00;99.90
563;DHT22;266;49.514;8.294;2022-08-06T12:32:26;30.30;99.90
563;DHT22;266;49.514;8.294;2022-08-06T12:34:55;30.40;99.90
563;DHT22;266;49.514;8.294;2022-08-06T12:37:36;30.60;99.90
563;DHT22;266;49.514;8.294;2022-08-06T12:40:17;30.60;99.90
563;DHT22;266;49.514;8.294;2022-08-06T12:43:10;30.60;99.90
563;DHT22;266;49.514;8.294;2022-08-06T12:45:42;30.50;99.90
563;DHT22;266;49.514;8.294;2022-08-06T12:48:30;30.60;99.90
563;DHT22;266;49.514;8.294;2022-08-06T12:51:02;30.80;99.90
563;DHT22;266;49.514;8.294;2022-08-06T12:53:40;30.50;99.90
563;DHT22;266;49.514;8.294;2022-08-06T12:56:15;30.30;99.90
563;DHT22;266;49.514;8.294;2022-08-06T12:59:00;30.30;99.90
563;DHT22;266;49.514;8.294;2022-08-06T13:01:33;30.50;99.90
563;DHT22;266;49.514;8.294;2022-08-06T13:04:25;30.30;99.90
563;DHT22;266;49.514;8.294;2022-08-06T13:06:59;30.40;99.90
563;DHT22;266;49.514;8.294;2022-08-06T13:09:29;30.40;99.90
563;DHT22;266;49.514;8.294;2022-08-06T13:12:15;30.10;99.90
563;DHT22;266;49.514;8.294;2022-08-06T13:14:56;30.10;99.90
563;DHT22;266;49.514;8.294;2022-08-06T13:18:05;30.10;99.90
563;DHT22;266;49.514;8.294;2022-08-06T13:20:53;29.80;99.90
563;DHT22;266;49.514;8.294;2022-08-06T13:23:29;29.90;99.90
563;DHT22;266;49.514;8.294;2022-08-06T13:26:11;29.90;99.90
563;DHT22;266;49.514;8.294;2022-08-06T13:29:13;29.60;99.90
563;DHT22;266;49.514;8.294;2022-08-06T13:32:04;29.70;99.90
563;DHT22;266;49.514;8.294;2022-08-06T13:34:55;29.70;99.90
563;DHT22;266;49.514;8.294;2022-08-06T13:37:46;29.60;99.90
563;DHT22;266;49.514;8.294;2022-08-06T13:40:38;29.40;99.90
563;DHT22;266;49.514;8.294;2022-08-06T13:43:12;29.00;99.90
563;DHT22;266;49.514;8.294;2022-08-06T13:46:06;28.80;99.90
563;DHT22;266;49.514;8.294;2022-08-06T13:48:43;28.70;99.90
563;DHT22;266;49.514;8.294;2022-08-06T13:51:13;28.80;99.90
563;DHT22;266;49.514;8.294;2022-08-06T13:53:53;28.70;99.90
563;DHT22;266;49.514;8.294;2022-08-06T13:56:24;28.60;99.90
563;DHT22;266;49.514;8.294;2022-08-06T13:58:56;28.70;99.90
563;DHT22;266;49.514;8.294;2022-08-06T14:01:25;28.80;99.90
563;DHT22;266;49.514;8.294;2022-08-06T14:04:12;28.70;99.90
563;DHT22;266;49.514;8.294;2022-08-06T14:06:41;28.80;99.90
563;DHT22;266;49.514;8.294;2022-08-06T14:09:13;28.70;99.90
563;DHT22;266;49.514;8.294;2022-08-06T14:11:47;28.40;99.90
563;DHT22;266;49.514;8.294;2022-08-06T14:14:20;28.30;99.90
563;DHT22;266;49.514;8.294;2022-08-06T14:16:53;28.20;99.90
563;DHT22;266;49.514;8.294;2022-08-06T14:19:22;28.10;99.90
563;DHT22;266;49.514;8.294;2022-08-06T14:22:10;28.10;99.90
563;DHT22;266;49.514;8.294;2022-08-06T14:24:38;28.10;99.90
563;DHT22;266;49.514;8.294;2022-08-06T14:27:20;28.00;99.90
563;DHT22;266;49.514;8.294;2022-08-06T14:29:52;28.00;99.90
563;DHT22;266;49.514;8.294;2022-08-06T14:32:42;28.00;99.90
563;DHT22;266;49.514;8.294;2022-08-06T14:35:15;27.90;99.90
563;DHT22;266;49.514;8.294;2022-08-06T14:37:45;27.70;99.90
563;DHT22;266;49.514;8.294;2022-08-06T14:40:22;27.40;99.90
563;DHT22;266;49.514;8.294;2022-08-06T14:43:25;27.30;99.90
563;DHT22;266;49.514;8.294;2022-08-06T14:46:24;27.20;99.90
563;DHT22;266;49.514;8.294;2022-08-06T14:48:54;27.10;99.90
563;DHT22;266;49.514;8.294;2022-08-06T14:51:24;27.00;99.90
563;DHT22;266;49.514;8.294;2022-08-06T14:54:12;27.00;99.90
563;DHT22;266;49.514;8.294;2022-08-06T14:56:40;27.00;99.90
563;DHT22;266;49.514;8.294;2022-08-06T14:59:17;27.00;99.90
563;DHT22;266;49.514;8.294;2022-08-06T15:01:45;27.00;99.90
563;DHT22;266;49.514;8.294;2022-08-06T15:04:17;27.00;99.90
563;DHT22;266;49.514;8.294;2022-08-06T15:06:50;26.90;99.90
563;DHT22;266;49.514;8.294;2022-08-06T15:09:23;26.70;99.90
563;DHT22;266;49.514;8.294;2022-08-06T15:12:11;26.50;99.90
563;DHT22;266;49.514;8.294;2022-08-06T15:14:59;26.40;99.90
563;DHT22;266;49.514;8.294;2022-08-06T15:17:31;26.30;99.90
563;DHT22;266;49.514;8.294;2022-08-06T15:20:20;26.30;99.90
563;DHT22;266;49.514;8.294;2022-08-06T15:22:52;26.20;99.90
563;DHT22;266;49.514;8.294;2022-08-06T15:25:22;26.10;99.90
563;DHT22;266;49.514;8.294;2022-08-06T15:28:10;26.00;99.90
563;DHT22;266;49.514;8.294;2022-08-06T15:30:40;26.00;99.90
563;DHT22;266;49.514;8.294;2022-08-06T15:33:13;26.00;99.90
563;DHT22;266;49.514;8.294;2022-08-06T15:35:44;26.00;99.90
563;DHT22;266;49.514;8.294;2022-08-06T15:38:25;26.00;99.90
563;DHT22;266;49.514;8.294;2022-08-06T15:40:59;26.00;99.90
563;DHT22;266;49.514;8.294;2022-08-06T15:43:28;25.90;99.90
563;DHT22;266;49.514;8.294;2022-08-06T15:46:10;26.00;99.90
563;DHT22;266;49.514;8.294;2022-08-06T15:48:40;25.90;99.90
563;DHT22;266;49.514;8.294;2022-08-06T15:51:14;25.90;99.90
563;DHT22;266;49.514;8.294;2022-08-06T15:53:57;25.90;99.90
563;DHT22;266;49.514;8.294;2022-08-06T15:56:26;25.80;99.90
563;DHT22;266;49.514;8.294;2022-08-06T15:59:00;25.80;99.90
563;DHT22;266;49.514;8.294;2022-08-06T16:01:33;25.80;99.90
563;DHT22;266;49.514;8.294;2022-08-06T16:04:23;25.80;99.90
563;DHT22;266;49.514;8.294;2022-08-06T16:06:53;25.80;99.90
563;DHT22;266;49.514;8.294;2022-08-06T16:09:24;25.70;99.90
563;DHT22;266;49.514;8.294;2022-08-06T16:11:55;25.70;99.90
563;DHT22;266;49.514;8.294;2022-08-06T16:14:23;25.60;99.90
563;DHT22;266;49.514;8.294;2022-08-06T16:17:03;25.60;99.90
563;DHT22;266;49.514;8.294;2022-08-06T16:19:35;25.60;99.90
563;DHT22;266;49.514;8.294;2022-08-06T16:22:16;25.60;99.90
563;DHT22;266;49.514;8.294;2022-08-06T16:24:45;25.60;99.90
563;DHT22;266;49.514;8.294;2022-08-06T16:27:14;25.50;99.90
563;DHT22;266;49.514;8.294;2022-08-06T16:29:43;25.50;99.90
563;DHT22;266;49.514;8.294;2022-08-06T16:32:14;25.40;99.90
563;DHT22;266;49.514;8.294;2022-08-06T16:34:51;25.30;99.90
563;DHT22;266;49.514;8.294;2022-08-06T16:37:26;25.30;99.90
563;DHT22;266;49.514;8.294;2022-08-06T16:39:59;25.30;99.90
563;DHT22;266;49.514;8.294;2022-08-06T16:42:32;25.30;99.90
563;DHT22;266;49.514;8.294;2022-08-06T16:45:04;25.30;99.90
563;DHT22;266;49.514;8.294;2022-08-06T16:47:40;25.30;99.90
563;DHT22;266;49.514;8.294;2022-08-06T16:50:28;25.20;99.90
563;DHT22;266;49.514;8.294;2022-08-06T16:53:04;25.10;99.90
563;DHT22;266;49.514;8.294;2022-08-06T16:55:53;25.10;99.90
563;DHT22;266;49.514;8.294;2022-08-06T16:58:21;25.00;99.90
563;DHT22;266;49.514;8.294;2022-08-06T17:01:10;25.00;99.90
563;DHT22;266;49.514;8.294;2022-08-06T17:03:58;24.90;99.90
563;DHT22;266;49.514;8.294;2022-08-06T17:06:32;24.80;99.90
563;DHT22;266;49.514;8.294;2022-08-06T17:09:04;24.70;99.90
563;DHT22;266;49.514;8.294;2022-08-06T17:11:46;24.70;99.90
563;DHT22;266;49.514;8.294;2022-08-06T17:14:28;24.60;99.90
563;DHT22;266;49.514;8.294;2022-08-06T17:16:59;24.50;99.90
563;DHT22;266;49.514;8.294;2022-08-06T17:19:34;24.50;99.90
563;DHT22;266;49.514;8.294;2022-08-06T17:22:07;24.40;99.90
563;DHT22;266;49.514;8.294;2022-08-06T17:24:37;24.40;99.90
563;DHT22;266;49.514;8.294;2022-08-06T17:27:12;24.30;99.90
563;DHT22;266;49.514;8.294;2022-08-06T17:29:43;24.30;99.90
563;DHT22;266;49.514;8.294;2022-08-06T17:32:16;24.20;99.90
563;DHT22;266;49.514;8.294;2022-08-06T17:34:58;24.20;99.90
563;DHT22;266;49.514;8.294;2022-08-06T17:37:32;24.10;99.90
563;DHT22;266;49.514;8.294;2022-08-06T17:40:12;24.10;99.90
563;DHT22;266;49.514;8.294;2022-08-06T17:43:02;24.10;99.90
563;DHT22;266;49.514;8.294;2022-08-06T17:45:47;24.00;99.90
563;DHT22;266;49.514;8.294;2022-08-06T17:48:26;23.90;99.90
563;DHT22;266;49.514;8.294;2022-08-06T17:50:57;23.80;99.90
563;DHT22;266;49.514;8.294;2022-08-06T17:53:35;23.80;99.90
563;DHT22;266;49.514;8.294;2022-08-06T17:56:22;23.80;99.90